createdAt,value
2023-10-20T00:00:23.065Z,25.95
2023-10-20T00:02:51.541Z,26.25
2023-10-20T00:05:21.392Z,20.85
2023-10-20T00:07:49.786Z,22.80
2023-10-20T00:10:19.059Z,24.63
2023-10-20T00:12:47.510Z,28.48
2023-10-20T00:15:17.569Z,23.55
2023-10-20T00:17:47.287Z,26.10
2023-10-20T00:20:15.700Z,24.02
2023-10-20T00:22:45.577Z,31.77
2023-10-20T00:25:13.883Z,22.00
2023-10-20T00:27:43.352Z,26.58
2023-10-20T00:30:13.031Z,30.08
2023-10-20T00:32:42.633Z,35.03
2023-10-20T00:35:14.658Z,25.90
2023-10-20T00:37:45.203Z,22.77
2023-10-20T00:40:14.443Z,27.23
2023-10-20T00:42:42.845Z,24.02
2023-10-20T00:45:12.239Z,26.70
2023-10-20T00:47:42.272Z,28.45
2023-10-20T00:50:13.343Z,30.50
2023-10-20T00:52:46.435Z,21.50
2023-10-20T00:55:16.109Z,33.78
2023-10-20T00:57:46.436Z,32.85
2023-10-20T01:00:16.595Z,27.77
2023-10-20T01:02:45.065Z,28.85
2023-10-20T01:05:16.316Z,32.30
2023-10-20T01:07:46.301Z,27.25
2023-10-20T01:10:15.375Z,27.15
2023-10-20T01:12:44.286Z,27.50
2023-10-20T01:15:16.378Z,26.80
2023-10-20T01:17:45.335Z,30.70
2023-10-20T01:20:14.199Z,31.52
2023-10-20T01:22:43.188Z,30.38
2023-10-20T01:25:13.363Z,24.88
2023-10-20T01:27:41.845Z,25.58
2023-10-20T01:30:12.358Z,31.10
2023-10-20T01:32:42.202Z,27.98
2023-10-20T01:35:11.547Z,25.27
2023-10-20T01:37:39.954Z,22.45
2023-10-20T01:40:10.908Z,26.10
2023-10-20T01:42:40.820Z,24.90
2023-10-20T01:45:11.105Z,26.33
2023-10-20T01:47:39.942Z,21.63
2023-10-20T01:50:09.158Z,28.08
2023-10-20T01:52:38.514Z,22.60
2023-10-20T01:55:07.341Z,29.80
2023-10-20T01:57:35.771Z,23.15
2023-10-20T02:00:09.617Z,24.38
2023-10-20T02:02:41.133Z,18.58
2023-10-20T02:05:10.686Z,31.20
2023-10-20T02:07:39.994Z,19.25
2023-10-20T02:10:09.595Z,21.55
2023-10-20T02:12:38.111Z,18.35
2023-10-20T02:15:09.944Z,25.05
2023-10-20T02:17:38.455Z,23.73
2023-10-20T02:20:08.558Z,22.50
2023-10-20T02:22:37.013Z,22.67
2023-10-20T02:25:06.612Z,16.33
2023-10-20T02:27:35.088Z,19.85
2023-10-20T02:30:04.337Z,22.10
2023-10-20T02:32:34.294Z,22.50
2023-10-20T02:35:03.328Z,23.35
2023-10-20T02:37:31.701Z,18.00
2023-10-20T02:40:01.050Z,18.92
2023-10-20T02:42:32.243Z,16.60
2023-10-20T02:45:00.652Z,20.50
2023-10-20T02:47:31.056Z,19.73
2023-10-20T02:50:00.953Z,21.63
2023-10-20T02:52:29.350Z,22.85
2023-10-20T02:54:57.665Z,19.67
2023-10-20T02:57:26.153Z,21.90
2023-10-20T02:59:54.520Z,15.15
2023-10-20T03:02:23.782Z,16.80
2023-10-20T03:04:55.001Z,22.40
2023-10-20T03:07:28.600Z,20.08
2023-10-20T03:12:26.616Z,15.95
2023-10-20T03:14:55.139Z,12.88
2023-10-20T03:17:23.496Z,19.70
2023-10-20T03:19:54.887Z,19.63
2023-10-20T03:22:24.809Z,17.98
2023-10-20T03:24:53.076Z,19.65
2023-10-20T03:27:21.662Z,21.63
2023-10-20T03:29:52.706Z,23.65
2023-10-20T03:32:21.513Z,16.85
2023-10-20T03:34:49.767Z,18.75
2023-10-20T03:37:18.153Z,20.45
2023-10-20T03:39:52.330Z,26.30
2023-10-20T03:42:20.720Z,19.70
2023-10-20T03:44:49.291Z,18.75
2023-10-20T03:47:18.724Z,25.58
2023-10-20T03:49:47.897Z,19.33
2023-10-20T03:52:16.239Z,20.42
2023-10-20T03:54:45.871Z,23.88
2023-10-20T03:57:17.217Z,25.27
2023-10-20T03:59:48.205Z,20.60
2023-10-20T04:02:16.740Z,24.10
2023-10-20T04:04:45.349Z,18.92
2023-10-20T04:07:13.581Z,20.77
2023-10-20T04:09:42.209Z,22.17
2023-10-20T04:12:10.710Z,23.50
2023-10-20T04:14:40.690Z,24.95
2023-10-20T04:17:09.104Z,20.90
2023-10-20T04:19:37.392Z,27.10
2023-10-20T04:22:13.848Z,21.27
2023-10-20T04:24:43.067Z,26.90
2023-10-20T04:27:22.620Z,21.70
2023-10-20T04:32:51.648Z,18.48
2023-10-20T04:35:36.777Z,25.08
2023-10-20T04:38:22.909Z,23.98
2023-10-20T04:41:08.618Z,22.85
2023-10-20T04:43:41.185Z,22.23
2023-10-20T04:46:30.787Z,25.75
2023-10-20T04:49:17.971Z,23.70
2023-10-20T04:52:03.679Z,21.83
2023-10-20T04:54:45.953Z,26.17
2023-10-20T04:57:32.672Z,25.02
2023-10-20T05:00:22.570Z,26.77
2023-10-20T05:03:13.705Z,26.25
2023-10-20T05:05:45.686Z,21.00
2023-10-20T05:08:19.377Z,21.88
2023-10-20T05:10:50.547Z,25.38
2023-10-20T05:13:20.342Z,20.77
2023-10-20T05:15:49.384Z,22.58
2023-10-20T05:18:19.490Z,22.48
2023-10-20T05:20:47.895Z,20.83
2023-10-20T05:23:17.179Z,17.50
2023-10-20T05:25:50.448Z,22.83
2023-10-20T05:28:19.114Z,19.02
2023-10-20T05:30:48.169Z,19.60
2023-10-20T05:33:17.455Z,20.10
2023-10-20T05:35:47.396Z,22.55
2023-10-20T05:38:16.222Z,16.77
2023-10-20T05:40:44.983Z,19.90
2023-10-20T05:43:14.377Z,18.83
2023-10-20T05:45:43.237Z,16.60
2023-10-20T05:48:14.153Z,20.50
2023-10-20T05:50:42.957Z,20.00
2023-10-20T05:53:15.828Z,18.98
2023-10-20T06:33:35.716Z,14.27
2023-10-20T06:36:11.750Z,13.43
2023-10-20T06:38:59.732Z,13.80
2023-10-20T06:41:28.661Z,13.73
2023-10-20T06:43:59.040Z,22.25
2023-10-20T06:46:28.814Z,13.50
2023-10-20T06:48:57.506Z,13.38
2023-10-20T06:51:26.781Z,15.70
2023-10-20T06:53:55.284Z,12.05
2023-10-20T06:56:28.556Z,17.55
2023-10-20T06:58:57.261Z,14.35
2023-10-20T07:01:28.109Z,14.82
2023-10-20T07:03:56.954Z,9.75
2023-10-20T07:06:25.419Z,11.40
2023-10-20T07:08:53.808Z,11.88
2023-10-20T07:11:25.606Z,11.13
2023-10-20T07:13:55.329Z,10.80
2023-10-20T07:16:23.696Z,9.15
2023-10-20T07:18:52.068Z,10.52
2023-10-20T07:21:20.467Z,11.90
2023-10-20T07:23:48.787Z,10.55
2023-10-20T07:26:19.402Z,9.38
2023-10-20T07:28:48.360Z,8.60
2023-10-20T07:31:22.929Z,7.88
2023-10-20T07:33:51.582Z,10.07
2023-10-20T07:36:20.790Z,7.45
2023-10-20T07:38:52.125Z,7.15
2023-10-20T07:41:20.540Z,6.53
2023-10-20T07:43:50.912Z,5.82
2023-10-20T07:46:22.682Z,7.65
2023-10-20T07:48:51.493Z,5.53
2023-10-20T07:51:20.474Z,5.40
2023-10-20T07:53:54.295Z,7.43
2023-10-20T07:56:26.344Z,7.57
2023-10-20T07:58:54.946Z,4.95
2023-10-20T08:01:24.901Z,6.88
2023-10-20T08:03:53.971Z,7.28
2023-10-20T08:06:24.809Z,5.53
2023-10-20T08:08:55.637Z,4.45
2023-10-20T08:11:24.078Z,5.20
2023-10-20T08:13:52.930Z,5.40
2023-10-20T08:16:22.916Z,3.47
2023-10-20T08:18:53.260Z,3.17
2023-10-20T08:21:21.643Z,4.88
2023-10-20T08:23:50.037Z,3.85
2023-10-20T08:26:23.046Z,4.20
2023-10-20T08:28:51.810Z,3.15
2023-10-20T08:31:23.116Z,2.50
2023-10-20T08:33:53.832Z,5.60
2023-10-20T08:36:25.031Z,4.25
2023-10-20T08:38:54.568Z,3.08
2023-10-20T08:41:24.878Z,3.42
2023-10-20T08:43:53.635Z,4.03
2023-10-20T08:46:25.017Z,3.72
2023-10-20T08:48:58.995Z,2.95
2023-10-20T08:51:27.627Z,4.25
2023-10-20T08:53:55.984Z,5.05
2023-10-20T08:56:24.769Z,3.10
2023-10-20T08:58:55.654Z,2.70
2023-10-20T09:01:24.257Z,4.97
2023-10-20T09:03:53.678Z,2.72
2023-10-20T09:06:27.553Z,3.15
2023-10-20T09:08:56.260Z,3.05
2023-10-20T09:11:31.086Z,3.13
2023-10-20T09:14:02.237Z,3.42
2023-10-20T09:16:30.677Z,1.95
2023-10-20T09:18:59.069Z,2.72
2023-10-20T09:21:30.155Z,2.70
2023-10-20T09:24:02.974Z,4.57
2023-10-20T09:26:34.081Z,3.45
2023-10-20T09:29:02.906Z,3.63
2023-10-20T09:31:31.526Z,2.65
2023-10-20T09:34:00.994Z,2.95
2023-10-20T09:36:33.055Z,3.45
2023-10-20T09:39:06.380Z,2.80
2023-10-20T09:41:38.002Z,2.08
2023-10-20T09:44:08.393Z,4.22
2023-10-20T09:46:54.528Z,3.00
2023-10-20T09:49:25.983Z,3.08
2023-10-20T09:51:58.217Z,5.20
2023-10-20T09:54:31.363Z,2.90
2023-10-20T09:57:01.217Z,3.92
2023-10-20T09:59:32.710Z,3.17
2023-10-20T10:02:01.885Z,2.42
2023-10-20T10:04:34.593Z,3.28
2023-10-20T10:07:06.369Z,3.50
2023-10-20T10:09:38.897Z,4.05
2023-10-20T10:12:11.898Z,3.22
2023-10-20T10:14:40.774Z,3.15
2023-10-20T10:17:11.862Z,5.13
2023-10-20T10:19:51.721Z,5.65
2023-10-20T10:22:28.952Z,4.60
2023-10-20T10:24:58.781Z,3.60
2023-10-20T10:27:30.033Z,3.55
2023-10-20T10:30:02.981Z,3.00
2023-10-20T10:32:35.439Z,3.35
2023-10-20T10:35:05.697Z,2.05
2023-10-20T10:37:38.349Z,2.80
2023-10-20T10:40:10.263Z,3.22
2023-10-20T10:42:40.940Z,5.07
2023-10-20T10:45:17.081Z,3.33
2023-10-20T10:47:45.576Z,4.60
2023-10-20T10:50:16.521Z,3.17
2023-10-20T10:52:46.518Z,3.10
2023-10-20T10:55:15.118Z,4.30
2023-10-20T10:57:43.916Z,3.10
2023-10-20T11:00:19.891Z,2.72
2023-10-20T11:02:49.407Z,2.63
2023-10-20T11:05:18.776Z,1.67
2023-10-20T11:08:03.858Z,0.93
2023-10-20T11:10:35.500Z,3.33
2023-10-20T11:13:08.154Z,2.13
2023-10-20T11:15:37.745Z,2.20
2023-10-20T11:18:08.957Z,2.58
2023-10-20T11:20:39.611Z,2.67
2023-10-20T11:23:10.409Z,4.60
2023-10-20T11:25:41.972Z,3.90
2023-10-20T11:28:10.714Z,2.80
2023-10-20T11:30:46.210Z,2.78
2023-10-20T11:33:16.726Z,2.13
2023-10-20T11:35:46.619Z,1.98
2023-10-20T11:38:17.626Z,2.08
2023-10-20T11:40:50.968Z,3.05
2023-10-20T11:43:19.468Z,2.20
2023-10-20T11:45:47.938Z,1.95
2023-10-20T11:48:17.100Z,2.85
2023-10-20T11:50:45.879Z,3.92
2023-10-20T11:53:17.945Z,3.88
2023-10-20T11:55:46.482Z,2.10
2023-10-20T11:58:14.841Z,1.67
2023-10-20T12:00:43.679Z,2.75
2023-10-20T12:03:12.332Z,2.50
2023-10-20T12:05:41.500Z,3.60
2023-10-20T12:08:10.224Z,3.78
2023-10-20T12:10:40.872Z,4.07
2023-10-20T12:13:10.055Z,3.08
2023-10-20T12:15:38.891Z,2.10
2023-10-20T12:18:08.704Z,4.07
2023-10-20T12:20:37.423Z,2.55
2023-10-20T12:23:08.370Z,3.10
2023-10-20T12:25:37.270Z,2.53
2023-10-20T12:28:08.041Z,2.22
2023-10-20T12:30:37.084Z,2.25
2023-10-20T12:33:06.799Z,2.30
2023-10-20T12:35:35.302Z,2.38
2023-10-20T12:38:07.311Z,1.67
2023-10-20T12:40:36.915Z,2.10
2023-10-20T12:43:13.044Z,3.45
2023-10-20T12:45:43.599Z,2.00
2023-10-20T12:48:12.091Z,2.10
2023-10-20T12:50:40.584Z,1.48
2023-10-20T12:53:09.626Z,1.25
2023-10-20T12:55:37.944Z,1.20
2023-10-20T12:58:07.829Z,1.10
2023-10-20T13:00:36.271Z,1.83
2023-10-20T13:03:05.040Z,2.15
2023-10-20T13:05:35.980Z,1.55
2023-10-20T13:08:05.078Z,1.38
2023-10-20T13:10:37.341Z,1.42
2023-10-20T13:13:10.006Z,2.47
2023-10-20T13:15:40.356Z,2.25
2023-10-20T13:18:10.230Z,2.03
2023-10-20T13:20:39.045Z,2.15
2023-10-20T13:23:07.426Z,2.55
2023-10-20T13:25:36.159Z,1.85
2023-10-20T13:28:07.069Z,1.20
2023-10-20T13:30:37.250Z,1.98
2023-10-20T13:33:06.316Z,2.00
2023-10-20T13:35:37.912Z,2.17
2023-10-20T13:38:18.057Z,2.22
2023-10-20T13:40:47.873Z,2.15
2023-10-20T13:43:16.277Z,2.35
2023-10-20T13:45:46.072Z,3.78
2023-10-20T13:48:14.910Z,1.15
2023-10-20T13:50:43.328Z,2.22
2023-10-20T13:53:15.538Z,1.83
2023-10-20T13:55:50.356Z,2.55
2023-10-20T13:58:19.444Z,2.10
2023-10-20T14:00:56.844Z,3.20
2023-10-20T14:03:26.925Z,3.50
2023-10-20T14:05:56.502Z,2.95
2023-10-20T14:08:25.797Z,3.03
2023-10-20T14:10:55.612Z,1.88
2023-10-20T14:13:24.000Z,2.83
2023-10-20T14:15:53.881Z,2.95
2023-10-20T14:18:23.132Z,1.73
2023-10-20T14:21:31.971Z,3.35
2023-10-20T14:24:01.218Z,5.68
2023-10-20T14:26:29.751Z,4.25
2023-10-20T14:28:58.136Z,3.33
2023-10-20T14:31:33.615Z,2.67
2023-10-20T14:34:02.091Z,2.13
2023-10-20T14:36:32.562Z,2.03
2023-10-20T14:39:00.896Z,3.17
2023-10-20T14:41:29.290Z,2.22
2023-10-20T14:44:00.418Z,3.40
2023-10-20T14:46:28.837Z,2.25
2023-10-20T14:48:57.675Z,3.65
2023-10-20T14:51:26.307Z,2.22
2023-10-20T14:55:54.744Z,3.58
2023-10-20T14:58:23.320Z,2.25
2023-10-20T15:00:52.607Z,4.10
2023-10-20T15:03:22.216Z,2.67
2023-10-20T15:05:52.033Z,2.90
2023-10-20T15:08:21.049Z,4.38
2023-10-20T15:10:49.661Z,2.55
2023-10-20T15:13:20.321Z,1.80
2023-10-20T15:15:48.696Z,3.38
2023-10-20T15:18:19.746Z,2.92
2023-10-20T15:20:48.252Z,3.63
2023-10-20T15:23:18.368Z,5.25
2023-10-20T15:25:48.395Z,4.75
2023-10-20T15:28:16.867Z,4.32
2023-10-20T15:30:47.062Z,2.70
2023-10-20T15:33:18.223Z,2.45
2023-10-20T15:35:48.688Z,4.97
2023-10-20T15:38:17.444Z,4.55
2023-10-20T15:40:52.494Z,3.80
2023-10-20T15:43:21.244Z,3.58
2023-10-20T15:45:51.132Z,4.15
2023-10-20T15:48:19.796Z,4.05
2023-10-20T15:50:48.490Z,3.20
2023-10-20T15:53:16.973Z,3.83
2023-10-20T15:55:47.541Z,3.20
2023-10-20T15:58:16.789Z,2.83
2023-10-20T16:00:48.662Z,5.50
2023-10-20T16:03:20.813Z,6.70
2023-10-20T16:05:49.425Z,3.85
2023-10-20T16:08:17.686Z,5.15
2023-10-20T16:10:47.300Z,4.80
2023-10-20T16:13:15.764Z,6.03
2023-10-20T16:15:44.205Z,7.22
2023-10-20T16:18:13.012Z,5.97
2023-10-20T16:20:43.023Z,5.05
2023-10-20T16:23:11.308Z,4.00
2023-10-20T16:25:39.576Z,4.22
2023-10-20T16:28:09.093Z,4.68
2023-10-20T16:30:37.469Z,4.75
2023-10-20T16:33:06.470Z,4.30
2023-10-20T16:35:34.990Z,5.50
2023-10-20T16:38:04.803Z,6.32
2023-10-20T16:40:33.122Z,6.03
2023-10-20T16:43:02.209Z,5.28
2023-10-20T16:45:30.700Z,5.45
2023-10-20T16:47:59.098Z,6.18
2023-10-20T16:50:28.300Z,5.38
2023-10-20T16:52:58.733Z,5.90
2023-10-20T16:55:28.937Z,4.88
2023-10-20T16:57:57.448Z,4.50
2023-10-20T17:00:25.901Z,8.07
2023-10-20T17:02:54.376Z,6.38
2023-10-20T17:05:22.924Z,9.30
2023-10-20T17:07:51.542Z,8.52
2023-10-20T17:10:20.568Z,7.47
2023-10-20T17:12:51.406Z,6.70
2023-10-20T17:15:20.176Z,5.93
2023-10-20T17:17:48.561Z,6.25
2023-10-20T17:20:17.250Z,6.20
2023-10-20T17:22:45.807Z,7.38
2023-10-20T17:25:14.083Z,7.45
2023-10-20T17:27:42.402Z,4.47
2023-10-20T17:30:13.293Z,6.05
2023-10-20T17:32:41.640Z,8.00
2023-10-20T17:35:10.955Z,5.60
2023-10-20T17:37:41.527Z,7.57
2023-10-20T17:40:13.325Z,6.35
2023-10-20T17:42:41.701Z,6.72
2023-10-20T17:45:10.750Z,8.48
2023-10-20T17:47:40.812Z,6.35
2023-10-20T17:50:10.018Z,6.20
2023-10-20T17:52:38.264Z,6.90
2023-10-20T17:55:07.491Z,8.68
2023-10-20T17:57:36.396Z,8.77
2023-10-20T18:00:06.338Z,9.50
2023-10-20T18:02:44.720Z,8.30
2023-10-20T18:06:30.980Z,8.85
2023-10-20T18:08:59.351Z,11.05
2023-10-20T18:11:28.039Z,10.30
2023-10-20T18:13:57.265Z,9.55
2023-10-20T18:16:26.504Z,8.35
2023-10-20T18:18:55.003Z,7.65
2023-10-20T18:21:23.465Z,9.95
2023-10-20T18:23:58.759Z,8.93
2023-10-20T18:26:27.237Z,7.20
2023-10-20T18:28:55.658Z,5.97
2023-10-20T18:31:24.045Z,8.23
2023-10-20T18:33:58.388Z,8.75
2023-10-20T18:36:27.854Z,7.05
2023-10-20T18:38:57.908Z,5.90
2023-10-20T18:41:26.276Z,6.30
2023-10-20T18:43:54.838Z,8.73
2023-10-20T18:46:24.983Z,8.57
2023-10-20T18:48:53.954Z,6.97
2023-10-20T18:51:23.881Z,7.47
2023-10-20T18:53:53.401Z,8.57
2023-10-20T18:56:23.589Z,7.25
2023-10-20T18:58:51.901Z,6.63
2023-10-20T19:01:20.544Z,7.72
2023-10-20T19:03:49.216Z,6.15
2023-10-20T19:06:17.828Z,9.63
2023-10-20T19:08:46.221Z,12.02
2023-10-20T19:11:14.688Z,9.45
2023-10-20T19:13:45.189Z,12.02
2023-10-20T19:16:13.576Z,9.25
2023-10-20T19:18:42.029Z,11.80
2023-10-20T19:21:12.320Z,8.32
2023-10-20T19:23:41.972Z,8.60
2023-10-20T19:26:12.592Z,7.10
2023-10-20T19:28:41.022Z,8.10
2023-10-20T19:31:11.045Z,10.55
2023-10-20T19:33:40.368Z,8.10
2023-10-20T19:36:11.008Z,10.98
2023-10-20T19:38:40.138Z,8.05
2023-10-20T19:41:09.387Z,10.38
2023-10-20T19:43:37.946Z,15.60
2023-10-20T19:46:06.494Z,21.42
2023-10-20T19:48:36.556Z,12.95
2023-10-20T19:51:05.039Z,17.48
2023-10-20T19:53:33.408Z,15.88
2023-10-20T19:56:01.848Z,19.17
2023-10-20T19:58:30.269Z,12.95
2023-10-20T20:00:59.311Z,14.10
2023-10-20T20:03:28.444Z,24.23
2023-10-20T20:05:59.497Z,15.85
2023-10-20T20:08:27.774Z,17.05
2023-10-20T20:10:57.298Z,24.45
2023-10-20T20:13:26.528Z,17.55
2023-10-20T20:15:54.756Z,31.75
2023-10-20T20:18:23.184Z,12.95
2023-10-20T20:20:51.543Z,14.23
2023-10-20T20:23:21.380Z,15.75
2023-10-20T20:25:50.023Z,14.43
2023-10-20T20:28:18.281Z,25.33
2023-10-20T20:30:46.627Z,20.33
2023-10-20T20:33:15.067Z,23.70
2023-10-20T20:35:44.055Z,12.65
2023-10-20T20:38:12.509Z,10.73
2023-10-20T20:40:42.287Z,14.38
2023-10-20T20:43:10.696Z,14.82
2023-10-20T20:45:39.030Z,17.02
2023-10-20T20:48:08.916Z,15.50
2023-10-20T20:50:41.804Z,15.88
2023-10-20T20:53:10.238Z,14.80
2023-10-20T20:55:38.777Z,17.27
2023-10-20T20:58:08.666Z,16.02
2023-10-20T21:00:37.454Z,16.42
2023-10-20T21:03:06.691Z,16.20
2023-10-20T21:05:35.705Z,15.23
2023-10-20T21:08:04.837Z,16.65
2023-10-20T21:10:33.907Z,13.20
2023-10-20T21:13:02.570Z,13.93
2023-10-20T21:15:32.488Z,18.35
2023-10-20T21:18:00.837Z,14.13
2023-10-20T21:20:29.272Z,16.95
2023-10-20T21:22:57.569Z,15.82
2023-10-20T21:25:26.636Z,19.10
2023-10-20T21:27:55.137Z,17.23
2023-10-20T21:30:23.449Z,18.58
2023-10-20T21:32:53.318Z,19.63
2023-10-20T21:35:23.836Z,20.52
2023-10-20T21:37:52.206Z,15.55
2023-10-20T21:40:21.738Z,19.33
2023-10-20T21:42:50.160Z,18.27
2023-10-20T21:45:19.334Z,16.33
2023-10-20T21:47:47.987Z,21.77
2023-10-20T21:50:18.118Z,17.13
2023-10-20T21:52:46.491Z,19.50
2023-10-20T21:55:14.800Z,19.48
2023-10-20T21:57:43.256Z,20.05
2023-10-20T22:00:17.293Z,21.30
2023-10-20T22:02:46.199Z,20.23
2023-10-20T22:05:14.539Z,20.33
2023-10-20T22:07:44.614Z,22.75
2023-10-20T22:10:13.007Z,21.85
2023-10-20T22:12:41.414Z,21.75
2023-10-20T22:15:10.879Z,20.83
2023-10-20T22:17:40.053Z,18.48
2023-10-20T22:20:10.035Z,20.00
2023-10-20T22:22:38.433Z,20.35
2023-10-20T22:25:10.087Z,20.02
2023-10-20T22:27:38.474Z,20.25
2023-10-20T22:30:09.087Z,22.17
2023-10-20T22:32:38.463Z,20.45
2023-10-20T22:35:07.634Z,18.83
2023-10-20T22:37:36.481Z,21.60
2023-10-20T22:40:05.239Z,22.65
2023-10-20T22:42:35.021Z,19.95
2023-10-20T22:45:03.655Z,25.65
2023-10-20T22:47:33.436Z,19.20
2023-10-20T22:50:01.893Z,19.90
2023-10-20T22:52:30.301Z,21.08
2023-10-20T22:54:58.792Z,16.63
2023-10-20T22:57:27.145Z,17.25
2023-10-20T22:59:57.078Z,20.10
2023-10-20T23:02:25.530Z,20.58
2023-10-20T23:04:53.793Z,22.65
2023-10-20T23:07:22.071Z,23.50
2023-10-20T23:09:50.650Z,22.90
2023-10-20T23:12:18.985Z,26.50
2023-10-20T23:14:47.428Z,22.80
2023-10-20T23:17:17.611Z,22.25
2023-10-20T23:19:46.018Z,23.67
2023-10-20T23:22:14.422Z,21.95
2023-10-20T23:24:42.935Z,23.67
2023-10-20T23:27:11.257Z,27.40
2023-10-20T23:29:39.704Z,22.77
2023-10-20T23:32:09.997Z,32.22
2023-10-20T23:34:39.878Z,23.65
2023-10-20T23:37:09.098Z,27.17
2023-10-20T23:39:37.942Z,28.00
2023-10-20T23:42:06.832Z,25.88
2023-10-20T23:44:35.411Z,25.73
2023-10-20T23:47:03.877Z,23.98
2023-10-20T23:49:34.326Z,29.48
2023-10-20T23:52:04.141Z,27.58
2023-10-20T23:54:32.598Z,22.75
2023-10-20T23:57:01.025Z,24.63
2023-10-20T23:59:29.748Z,26.17
